Time;durP1;ratioP1;P1;durP2;ratioP2;P2;SDS_P1;SDS_P2;PMS_P1;PMS_P2;Temp;Humidity;BMP_temperature;BMP_pressure;BME280_temperature;BME280_humidity;BME280_pressure;Samples;Min_cycle;Max_cycle;Signal;HPM_P1;HPM_P2
2023/02/23 00:00:27;;;;;;;71.28;29.77;;;;;;;6.78;96.72;101539.13;6084290;19;20191;-73
2023/02/23 00:02:35;;;;;;;74.00;29.08;;;;;;;6.77;96.41;101532.19;6083178;19;20415;-74
2023/02/23 00:04:41;;;;;;;70.47;30.67;;;;;;;6.78;96.39;101531.31;6085654;19;20634;-73
2023/02/23 00:06:46;;;;;;;69.32;29.95;;;;;;;6.77;96.20;101535.66;6091877;19;20013;-74
2023/02/23 00:08:51;;;;;;;65.93;29.40;;;;;;;6.77;96.47;101535.66;6088751;19;20014;-73
2023/02/23 00:10:57;;;;;;;74.68;30.33;;;;;;;6.75;96.91;101532.22;6086840;19;20002;-73
2023/02/23 00:13:03;;;;;;;68.60;27.63;;;;;;;6.76;96.59;101533.06;6090042;19;20011;-73
2023/02/23 00:15:14;;;;;;;73.53;30.25;;;;;;;6.76;96.74;101533.06;6093371;19;20015;-73
2023/02/23 00:17:23;;;;;;;71.40;30.70;;;;;;;6.75;96.46;101536.56;6092589;19;20399;-74
2023/02/23 00:19:32;;;;;;;67.43;28.55;;;;;;;6.75;96.56;101531.34;6090701;19;20023;-74
2023/02/23 00:21:37;;;;;;;72.97;33.38;;;;;;;6.76;96.88;101533.06;6089371;19;20022;-74
2023/02/23 00:23:44;;;;;;;69.85;29.73;;;;;;;6.75;97.26;101539.19;6089878;19;20021;-74
2023/02/23 00:25:52;;;;;;;76.97;29.20;;;;;;;6.74;97.07;101530.50;6088219;19;20123;-74
2023/02/23 00:27:57;;;;;;;75.60;30.80;;;;;;;6.74;97.34;101533.09;6093845;19;20015;-75
2023/02/23 00:30:06;;;;;;;64.10;27.65;;;;;;;6.74;97.11;101530.50;6092521;19;20034;-74
2023/02/23 00:32:12;;;;;;;70.63;32.42;;;;;;;6.74;97.38;101533.09;6084590;19;20387;-74
2023/02/23 00:34:22;;;;;;;64.90;27.20;;;;;;;6.74;96.90;101532.22;6092061;19;20505;-75
2023/02/23 00:36:32;;;;;;;62.92;28.75;;;;;;;6.76;97.01;101535.69;6091878;19;20027;-75
2023/02/23 00:38:38;;;;;;;65.28;27.55;;;;;;;6.75;97.04;101528.75;6088997;19;20023;-74
2023/02/23 00:40:47;;;;;;;68.60;29.52;;;;;;;6.75;97.38;101526.97;6090228;19;20050;-74
2023/02/23 00:42:57;;;;;;;67.45;27.95;;;;;;;6.75;97.15;101520.91;6089562;19;20033;-75
2023/02/23 00:45:07;;;;;;;69.88;30.45;;;;;;;6.76;97.04;101527.84;6088311;19;20094;-75
2023/02/23 00:47:14;;;;;;;65.03;27.90;;;;;;;6.76;96.72;101525.22;6088807;19;20358;-74
2023/02/23 00:49:23;;;;;;;57.90;25.48;;;;;;;6.77;97.08;101529.59;6083529;19;20003;-74
2023/02/23 00:51:31;;;;;;;61.92;27.10;;;;;;;6.76;97.06;101525.22;6063136;19;20270;-74
2023/02/23 00:53:36;;;;;;;74.93;30.52;;;;;;;6.77;96.85;101532.19;6084897;19;20022;-74
2023/02/23 00:55:43;;;;;;;68.30;28.13;;;;;;;6.78;96.74;101524.31;6088902;19;20014;-75
2023/02/23 00:57:50;;;;;;;69.80;29.15;;;;;;;6.78;97.17;101523.47;6064509;19;20522;-74
2023/02/23 00:59:54;;;;;;;80.10;32.20;;;;;;;6.77;97.07;101530.44;6088155;19;20002;-73
2023/02/23 01:01:59;;;;;;;68.18;28.67;;;;;;;6.77;97.07;101525.22;6084605;19;20562;-74
2023/02/23 01:04:06;;;;;;;72.13;29.13;;;;;;;6.77;96.89;101526.97;6089730;19;20118;-73
2023/02/23 01:06:15;;;;;;;71.88;28.65;;;;;;;6.78;97.07;101532.16;6087388;19;20086;-73
2023/02/23 01:08:23;;;;;;;76.97;29.40;;;;;;;6.78;97.07;101529.56;6088048;19;20364;-73
2023/02/23 01:10:28;;;;;;;66.20;27.73;;;;;;;6.80;96.98;101534.75;6087145;19;20113;-73
2023/02/23 01:12:33;;;;;;;65.93;28.15;;;;;;;6.81;96.92;101531.25;6086708;19;20018;-74
2023/02/23 01:14:39;;;;;;;75.40;28.35;;;;;;;6.80;97.04;101533.00;6088351;19;20018;-73
2023/02/23 01:16:44;;;;;;;63.83;26.75;;;;;;;6.80;96.94;101533.00;6090666;19;20046;-75
2023/02/23 01:18:50;;;;;;;62.92;25.70;;;;;;;6.79;97.10;101535.63;6089272;19;20010;-73
2023/02/23 01:20:55;;;;;;;59.40;26.02;;;;;;;6.80;97.39;101532.16;6091288;19;20025;-75
2023/02/23 01:23:03;;;;;;;65.40;27.95;;;;;;;6.78;97.17;101531.31;6081906;19;20014;-75
2023/02/23 01:25:09;;;;;;;64.50;26.88;;;;;;;6.78;97.05;101529.56;6087843;19;20090;-74
2023/02/23 01:27:13;;;;;;;63.05;26.40;;;;;;;6.79;97.11;101527.78;6086360;19;20011;-73
2023/02/23 01:29:19;;;;;;;54.38;23.80;;;;;;;6.78;96.85;101529.56;6083031;19;20372;-74
2023/02/23 01:31:25;;;;;;;61.03;26.90;;;;;;;6.78;97.08;101537.38;6087164;19;20546;-74
2023/02/23 01:33:30;;;;;;;65.38;26.27;;;;;;;6.78;97.31;101537.38;6086666;19;20462;-73
2023/02/23 01:35:35;;;;;;;57.33;24.33;;;;;;;6.78;97.24;101531.31;6085720;19;20048;-75
2023/02/23 01:37:44;;;;;;;60.88;24.52;;;;;;;6.77;97.01;101537.44;6087565;19;20392;-74
2023/02/23 01:39:52;;;;;;;60.22;25.85;;;;;;;6.78;97.00;101533.91;6086492;19;20010;-74
2023/02/23 01:41:57;;;;;;;63.13;24.73;;;;;;;6.79;96.87;101541.75;6084744;19;20038;-73
2023/02/23 01:44:05;;;;;;;54.35;23.88;;;;;;;6.79;96.75;101535.63;6086951;19;20022;-75
2023/02/23 01:46:10;;;;;;;63.67;25.77;;;;;;;6.79;96.94;101531.28;6083923;19;20003;-75
2023/02/23 01:48:19;;;;;;;55.13;24.17;;;;;;;6.77;96.85;101538.28;6085467;19;20011;-74
2023/02/23 01:50:27;;;;;;;54.88;26.38;;;;;;;6.78;97.00;101541.75;6091667;19;20038;-74
2023/02/23 01:52:36;;;;;;;57.28;24.50;;;;;;;6.77;96.78;101532.19;6083955;19;20014;-74
2023/02/23 01:54:49;;;;;;;58.53;26.27;;;;;;;6.79;97.15;101533.91;6081885;19;20803;-74
2023/02/23 01:57:00;;;;;;;59.33;24.95;;;;;;;6.77;97.20;101537.44;6086535;19;20007;-73
2023/02/23 01:59:11;;;;;;;63.13;26.75;;;;;;;6.78;97.34;101539.13;6083214;19;20502;-74
2023/02/23 02:01:16;;;;;;;61.70;27.55;;;;;;;6.77;97.22;101537.44;6084980;19;20010;-74
2023/02/23 02:03:33;;;;;;;61.90;27.30;;;;;;;6.74;97.33;101538.31;6085256;19;21068;-76
2023/02/23 02:05:44;;;;;;;65.40;26.58;;;;;;;6.75;97.11;101542.66;6083585;19;20690;-76
2023/02/23 02:07:57;;;;;;;62.63;26.70;;;;;;;6.77;96.87;101545.25;6080929;19;20007;-78
2023/02/23 02:12:26;;;;;;;66.82;26.60;;;;;;;6.74;97.51;101545.28;6090219;19;20470;-76
2023/02/23 02:14:34;;;;;;;63.25;28.70;;;;;;;6.74;97.35;101556.63;6086281;19;20011;-76
2023/02/23 02:16:53;;;;;;;59.47;25.48;;;;;;;6.75;96.96;101555.72;6090152;19;20011;-76
2023/02/23 02:19:32;;;;;;;57.35;23.38;;;;;;;6.74;97.31;101559.22;6083356;19;20367;-76
2023/02/23 02:22:09;;;;;;;61.75;24.77;;;;;;;6.74;97.22;101548.78;6085965;19;20025;-77
2023/02/23 02:24:49;;;;;;;53.55;24.08;;;;;;;6.76;96.99;101548.75;6084633;19;20049;-77
2023/02/23 02:27:12;;;;;;;63.22;23.95;;;;;;;6.75;97.13;101545.28;6084567;19;20003;-76
2023/02/23 02:29:54;;;;;;;66.18;28.05;;;;;;;6.74;97.26;101546.16;6079926;19;20034;-76
2023/02/23 02:32:42;;;;;;;53.95;23.73;;;;;;;6.74;96.82;101545.28;6087980;19;20014;-80
2023/02/23 02:35:24;;;;;;;53.90;23.00;;;;;;;6.70;97.34;101541.84;6086132;19;20507;-77
2023/02/23 02:37:47;;;;;;;63.40;26.38;;;;;;;6.69;97.49;101534.91;6081168;19;20052;-77
2023/02/23 02:40:14;;;;;;;56.05;22.42;;;;;;;6.68;97.53;101541.00;6085770;19;20034;-76
2023/02/23 02:42:30;;;;;;;51.58;22.58;;;;;;;6.68;97.38;101532.31;6079075;19;20094;-77
2023/02/23 02:44:44;;;;;;;50.95;21.80;;;;;;;6.67;97.27;101535.81;6086572;19;20022;-77
2023/02/23 02:46:56;;;;;;;55.17;23.50;;;;;;;6.65;97.14;101541.03;6086570;19;20015;-78
2023/02/23 02:49:07;;;;;;;56.83;23.08;;;;;;;6.64;97.32;101535.88;6081524;19;20194;-78
2023/02/23 02:51:23;;;;;;;56.97;24.20;;;;;;;6.62;97.55;101533.25;6084454;19;20102;-79
2023/02/23 02:53:42;;;;;;;61.53;25.85;;;;;;;6.62;97.64;101540.22;6078816;19;20086;-77
2023/02/23 02:55:54;;;;;;;66.13;26.90;;;;;;;6.61;97.49;101536.75;6084127;19;20086;-77
2023/02/23 02:58:02;;;;;;;51.72;23.33;;;;;;;6.61;97.13;101539.38;6082292;19;20018;-78
2023/02/23 04:18:52;;;;;;;58.22;23.58;;;;;;;6.58;97.49;101571.63;6090463;19;20933;-77
2023/02/23 04:21:03;;;;;;;53.58;23.25;;;;;;;6.58;97.48;101566.41;6072801;19;19999;-76
2023/02/23 04:23:08;;;;;;;50.35;21.42;;;;;;;6.59;97.30;101575.09;6086534;19;20473;-75
2023/02/23 04:25:18;;;;;;;49.80;19.90;;;;;;;6.59;97.36;101575.09;6089478;19;20011;-77
2023/02/23 04:27:23;;;;;;;54.45;21.52;;;;;;;6.56;97.90;101577.75;6087528;19;20066;-77
2023/02/23 04:29:27;;;;;;;51.67;21.23;;;;;;;6.56;97.63;101575.97;6089165;19;20011;-77
2023/02/23 04:31:35;;;;;;;53.45;21.42;;;;;;;6.55;97.61;101576.00;6085080;19;20078;-77
2023/02/23 04:33:43;;;;;;;48.05;22.48;;;;;;;6.56;97.34;101581.22;6088257;19;20419;-76
2023/02/23 04:35:48;;;;;;;57.35;23.98;;;;;;;6.53;97.73;101578.63;6071182;19;20078;-80
2023/02/23 04:37:53;;;;;;;53.08;25.15;;;;;;;6.51;97.64;101575.19;6093298;19;20023;-79
2023/02/23 04:40:00;;;;;;;50.30;21.60;;;;;;;6.51;97.53;101574.31;6093723;19;20007;-81
2023/02/23 04:42:06;;;;;;;57.42;22.88;;;;;;;6.50;97.93;101572.56;6095257;19;20018;-79
2023/02/23 04:44:14;;;;;;;52.30;22.60;;;;;;;6.49;97.90;101579.53;6094663;19;20066;-79
2023/02/23 04:46:19;;;;;;;56.38;24.73;;;;;;;6.49;97.63;101583.91;6091133;19;20097;-79
2023/02/23 04:48:25;;;;;;;49.60;21.40;;;;;;;6.50;97.94;101589.13;6095109;19;20038;-79
2023/02/23 04:50:33;;;;;;;60.80;24.20;;;;;;;6.48;97.85;101580.44;6093145;19;20635;-81
2023/02/23 04:52:38;;;;;;;59.90;23.58;;;;;;;6.48;97.81;101588.28;6088086;19;20017;-79
2023/02/23 04:54:43;;;;;;;53.63;21.58;;;;;;;6.46;97.92;101586.56;6090319;19;20015;-78
2023/02/23 04:56:51;;;;;;;50.30;22.67;;;;;;;6.46;97.84;101586.56;6092547;19;20637;-79
2023/02/23 04:58:57;;;;;;;52.63;21.55;;;;;;;6.44;97.95;101591.78;6088759;19;20010;-79
2023/02/23 05:01:10;;;;;;;46.08;21.33;;;;;;;6.43;97.90;101584.00;6082598;19;20460;-76
2023/02/23 05:03:16;;;;;;;49.65;21.00;;;;;;;6.42;97.76;101596.16;6078392;19;20241;-76
2023/02/23 05:05:21;;;;;;;54.83;22.10;;;;;;;6.42;98.18;101596.16;6084546;19;21347;-76
2023/02/23 05:07:30;;;;;;;54.22;24.00;;;;;;;6.41;97.80;101596.19;6085450;19;20018;-76
2023/02/23 05:09:35;;;;;;;56.63;23.80;;;;;;;6.42;98.23;101605.72;6081963;19;20438;-75
2023/02/23 05:11:42;;;;;;;53.75;22.75;;;;;;;6.40;98.19;101607.50;6085053;19;20006;-75
2023/02/23 05:13:50;;;;;;;50.95;22.83;;;;;;;6.42;98.16;101616.19;6087634;19;20031;-74
2023/02/23 05:15:59;;;;;;;54.72;21.95;;;;;;;6.38;98.05;101610.13;6088883;19;20494;-75
2023/02/23 05:18:07;;;;;;;56.35;23.88;;;;;;;6.38;98.03;101624.03;6089587;19;20041;-75
2023/02/23 05:20:15;;;;;;;53.33;23.88;;;;;;;6.36;98.32;101610.13;6090705;19;20299;-75
2023/02/23 05:22:20;;;;;;;51.53;21.88;;;;;;;6.33;97.88;101612.78;6090270;19;20119;-74
2023/02/23 05:24:28;;;;;;;59.65;23.13;;;;;;;6.32;98.10;101618.03;6087142;19;20011;-76
2023/02/23 05:26:33;;;;;;;59.42;26.17;;;;;;;6.32;98.16;101618.03;6083086;19;20014;-76
2023/02/23 05:28:39;;;;;;;54.70;19.77;;;;;;;6.29;98.09;101620.66;6092232;19;20483;-75
2023/02/23 05:30:45;;;;;;;53.47;22.95;;;;;;;6.27;98.31;101622.44;6085591;19;20032;-75
2023/02/23 05:32:50;;;;;;;53.47;23.30;;;;;;;6.26;98.11;101621.56;6065164;19;20572;-75
2023/02/23 05:34:58;;;;;;;57.10;22.27;;;;;;;6.23;98.07;101621.59;6083176;19;20475;-75
2023/02/23 05:37:03;;;;;;;54.13;22.67;;;;;;;6.22;98.35;101624.22;6081272;19;20006;-75
2023/02/23 05:39:08;;;;;;;61.85;24.58;;;;;;;6.18;98.19;101632.97;6088566;19;20621;-76
2023/02/23 05:41:21;;;;;;;56.63;21.98;;;;;;;6.14;98.38;101622.56;6086301;19;20023;-79
2023/02/23 05:43:27;;;;;;;55.53;23.17;;;;;;;6.13;97.90;101631.28;6094837;19;20014;-80
2023/02/23 05:45:33;;;;;;;60.90;25.33;;;;;;;6.16;98.52;101627.75;6089081;19;20307;-78
2023/02/23 05:47:40;;;;;;;69.22;26.98;;;;;;;6.15;98.75;101629.50;6087226;19;20046;-79
2023/02/23 05:49:49;;;;;;;62.95;25.42;;;;;;;6.12;98.32;101628.66;6086870;19;20010;-75
2023/02/23 05:52:00;;;;;;;59.72;23.70;;;;;;;6.15;98.12;101633.84;6085687;19;20038;-76
2023/02/23 05:54:05;;;;;;;58.03;25.20;;;;;;;6.14;98.42;101635.59;6077909;19;20006;-76
2023/02/23 05:56:19;;;;;;;55.10;22.90;;;;;;;6.10;98.35;101626.06;6084729;19;20607;-75
2023/02/23 05:58:27;;;;;;;58.15;22.73;;;;;;;6.13;98.44;101627.78;6085048;19;20040;-76
2023/02/23 06:00:35;;;;;;;56.70;22.88;;;;;;;6.09;98.03;101626.94;6086356;19;20100;-74
2023/02/23 06:02:40;;;;;;;54.63;22.80;;;;;;;6.12;98.25;101628.66;6059632;19;20010;-75
2023/02/23 06:04:45;;;;;;;61.75;23.67;;;;;;;6.13;98.64;101627.78;6082715;19;20030;-75
2023/02/23 06:06:51;;;;;;;67.93;25.92;;;;;;;6.15;98.70;101626.88;6080199;19;20010;-76
2023/02/23 06:09:03;;;;;;;60.00;24.55;;;;;;;6.13;98.52;101630.38;6057100;19;23286;-76
2023/02/23 06:11:08;;;;;;;63.67;24.65;;;;;;;6.14;98.43;101635.59;6087180;19;20426;-75
2023/02/23 06:13:20;;;;;;;61.70;24.73;;;;;;;6.16;98.34;101638.19;6085968;19;20052;-75
2023/02/23 06:15:25;;;;;;;69.75;26.88;;;;;;;6.16;98.63;101640.78;6085720;19;20014;-75
2023/02/23 06:17:33;;;;;;;70.50;26.65;;;;;;;6.20;98.74;101646.88;6086016;19;20538;-76
2023/02/23 06:19:38;;;;;;;69.10;25.73;;;;;;;6.20;98.65;101645.13;6084511;19;20019;-76
2023/02/23 06:21:45;;;;;;;70.70;25.02;;;;;;;6.21;98.39;101651.19;6082896;19;20018;-76
2023/02/23 06:23:52;;;;;;;72.40;24.65;;;;;;;6.24;98.55;101651.16;6084382;19;20019;-75
2023/02/23 06:26:00;;;;;;;73.68;26.67;;;;;;;6.24;98.57;101659.88;6081720;19;20432;-76
2023/02/23 06:28:06;;;;;;;75.95;27.27;;;;;;;6.29;98.84;101651.97;6084207;19;20014;-75
2023/02/23 06:30:14;;;;;;;71.45;28.48;;;;;;;6.26;98.33;101657.22;6083267;19;20070;-76
2023/02/23 06:32:19;;;;;;;65.05;25.80;;;;;;;6.27;98.34;101653.75;6078000;19;20017;-75
2023/02/23 06:34:27;;;;;;;71.65;27.42;;;;;;;6.28;98.55;101658.09;6085107;19;20033;-75
2023/02/23 06:36:31;;;;;;;69.68;25.60;;;;;;;6.28;98.65;101655.47;6080967;19;20070;-75
2023/02/23 06:38:36;;;;;;;72.07;25.63;;;;;;;6.26;98.36;101652.00;6085124;19;20040;-76
2023/02/23 06:40:44;;;;;;;72.55;25.83;;;;;;;6.28;98.66;101658.94;6084841;19;20367;-75
2023/02/23 06:42:49;;;;;;;64.97;24.13;;;;;;;6.26;98.03;101658.09;6084473;19;20056;-75
2023/02/23 06:44:56;;;;;;;67.75;24.27;;;;;;;6.26;98.11;101657.22;6086032;19;20677;-76
2023/02/23 06:47:07;;;;;;;75.85;27.20;;;;;;;6.23;98.55;101657.25;6055696;19;20019;-76
2023/02/23 06:49:15;;;;;;;70.22;23.83;;;;;;;6.23;98.19;101665.09;6086268;19;20011;-76
2023/02/23 06:51:20;;;;;;;74.47;26.75;;;;;;;6.21;98.33;101656.41;6082152;19;20518;-76
2023/02/23 06:53:29;;;;;;;79.82;26.35;;;;;;;6.25;98.23;101663.34;6084275;19;20521;-75
2023/02/23 06:55:36;;;;;;;80.93;25.75;;;;;;;6.21;98.22;101666.84;6087596;19;20467;-76
2023/02/23 06:57:41;;;;;;;68.60;25.45;;;;;;;6.20;98.40;101671.22;6068547;19;20122;-76
2023/02/23 06:59:47;;;;;;;68.28;24.20;;;;;;;6.19;98.06;101679.03;6087205;19;20093;-76
2023/02/23 07:01:52;;;;;;;59.42;22.65;;;;;;;6.14;98.13;101685.19;6087720;19;20459;-75
2023/02/23 07:04:00;;;;;;;60.47;22.42;;;;;;;6.12;98.05;101684.31;6090069;19;20014;-76
2023/02/23 07:06:06;;;;;;;68.72;22.35;;;;;;;6.12;97.98;101686.06;6083107;19;20585;-75
2023/02/23 07:08:12;;;;;;;63.55;22.70;;;;;;;6.14;98.28;101698.22;6085680;19;20017;-76
2023/02/23 07:10:18;;;;;;;63.85;24.00;;;;;;;6.18;98.51;101704.28;6086791;19;20014;-75
2023/02/23 07:12:25;;;;;;;64.07;22.60;;;;;;;6.21;98.29;101708.59;6087058;19;20038;-76
2023/02/23 07:14:32;;;;;;;72.90;24.63;;;;;;;6.26;98.31;101715.50;6089740;19;20703;-75
2023/02/23 07:16:41;;;;;;;73.70;23.67;;;;;;;6.28;98.49;101721.59;6090194;19;20121;-77
2023/02/23 07:18:46;;;;;;;83.72;28.15;;;;;;;6.35;98.53;101728.50;6091769;19;20025;-76
2023/02/23 07:20:55;;;;;;;75.55;25.48;;;;;;;6.41;98.11;101732.81;6093015;19;20030;-75
2023/02/23 07:23:00;;;;;;;70.32;25.65;;;;;;;6.46;97.71;101732.78;6083539;19;20519;-76
2023/02/23 07:25:08;;;;;;;80.13;25.70;;;;;;;6.51;97.57;101733.59;6072876;19;20036;-75
2023/02/23 07:27:15;;;;;;;70.47;25.45;;;;;;;6.52;97.52;101733.56;6089112;19;20014;-76
2023/02/23 07:29:22;;;;;;;76.13;23.75;;;;;;;6.53;97.39;101740.53;6092533;19;20035;-76
2023/02/23 07:31:27;;;;;;;73.57;25.52;;;;;;;6.55;97.65;101740.50;6083896;19;20014;-76
2023/02/23 07:33:32;;;;;;;85.72;25.92;;;;;;;6.57;97.70;101743.97;6089549;19;20861;-76
2023/02/23 07:35:38;;;;;;;82.55;27.15;;;;;;;6.58;97.79;101750.91;6088136;19;20188;-75
2023/02/23 07:37:46;;;;;;;86.68;26.80;;;;;;;6.59;97.32;101752.66;6081748;19;20498;-76
2023/02/23 07:39:51;;;;;;;82.20;27.25;;;;;;;6.60;97.60;101757.00;6089544;19;20036;-75
2023/02/23 07:41:56;;;;;;;88.07;26.13;;;;;;;6.61;97.58;101763.97;6088158;19;20085;-74
2023/02/23 07:44:05;;;;;;;89.78;25.60;;;;;;;6.60;97.59;101752.63;6091139;19;20034;-74
2023/02/23 07:46:12;;;;;;;96.00;28.45;;;;;;;6.63;97.48;101756.09;6091850;19;20015;-74
2023/02/23 07:48:18;;;;;;;87.20;27.48;;;;;;;6.64;97.30;101760.47;6068843;19;20014;-74
2023/02/23 07:50:23;;;;;;;79.28;26.17;;;;;;;6.64;97.24;101761.31;6090964;19;20007;-74
2023/02/23 07:52:28;;;;;;;78.90;27.52;;;;;;;6.65;97.51;101763.03;6087980;19;20043;-75
2023/02/23 07:54:35;;;;;;;92.50;26.30;;;;;;;6.68;97.32;101763.00;6067661;19;20042;-75
2023/02/23 07:56:41;;;;;;;77.47;25.10;;;;;;;6.71;97.41;101762.13;6091527;19;20070;-75
2023/02/23 07:58:47;;;;;;;82.13;24.17;;;;;;;6.73;97.43;101768.19;6069393;19;20006;-76
2023/02/23 08:00:52;;;;;;;77.78;26.63;;;;;;;6.76;97.31;101770.78;6089407;19;20014;-74
2023/02/23 08:02:57;;;;;;;81.65;26.27;;;;;;;6.76;96.98;101773.38;6079292;19;20019;-76
2023/02/23 08:05:06;;;;;;;77.43;25.88;;;;;;;6.80;97.45;101775.09;6082846;19;20105;-75
2023/02/23 08:07:13;;;;;;;79.57;25.70;;;;;;;6.77;97.33;101778.59;6087072;19;20009;-76
2023/02/23 08:09:22;;;;;;;79.60;24.15;;;;;;;6.81;97.32;101782.03;6087506;19;20010;-76
2023/02/23 08:11:32;;;;;;;73.47;25.35;;;;;;;6.83;97.36;101788.13;6084304;19;20091;-76
2023/02/23 08:13:40;;;;;;;73.72;24.95;;;;;;;6.87;97.11;101789.81;6090972;19;20003;-75
2023/02/23 08:15:47;;;;;;;77.95;26.00;;;;;;;6.88;97.17;101793.31;6083278;19;20676;-75
2023/02/23 08:17:54;;;;;;;84.63;27.30;;;;;;;6.89;97.34;101793.28;6086988;19;20098;-75
2023/02/23 08:19:59;;;;;;;71.43;22.10;;;;;;;6.88;97.14;101802.00;6086103;19;20017;-77
2023/02/23 08:22:05;;;;;;;83.78;26.35;;;;;;;6.89;97.03;101795.91;6088385;19;20082;-75
2023/02/23 08:24:14;;;;;;;80.30;25.40;;;;;;;6.92;97.10;101798.47;6085878;19;20010;-76
2023/02/23 08:26:22;;;;;;;79.65;24.33;;;;;;;6.97;97.08;101790.59;6085124;19;20011;-76
2023/02/23 08:28:32;;;;;;;70.82;25.15;;;;;;;6.98;97.01;101797.56;6085833;19;20911;-77
2023/02/23 08:30:41;;;;;;;76.63;23.83;;;;;;;6.91;96.70;101791.53;6085833;19;20010;-76
2023/02/23 08:32:46;;;;;;;72.18;23.85;;;;;;;6.93;96.55;101797.63;6064102;19;20049;-76
2023/02/23 08:34:52;;;;;;;71.00;24.40;;;;;;;6.97;96.54;101801.03;6085307;19;20007;-76
2023/02/23 08:37:02;;;;;;;72.28;23.17;;;;;;;7.02;96.44;101807.09;6085387;19;20011;-75
2023/02/23 08:39:08;;;;;;;63.58;20.88;;;;;;;7.01;96.19;101803.63;6084827;19;20015;-76
2023/02/23 08:41:16;;;;;;;65.00;22.42;;;;;;;6.97;95.26;101807.13;6088647;19;20038;-75
2023/02/23 08:43:24;;;;;;;64.95;21.52;;;;;;;6.95;95.41;101803.69;6084434;19;20595;-75
2023/02/23 08:45:37;;;;;;;49.97;19.77;;;;;;;6.97;94.96;101812.34;6082191;19;20014;-76
2023/02/23 08:47:43;;;;;;;57.03;20.13;;;;;;;7.03;95.11;101822.78;6084572;19;20569;-76
2023/02/23 08:49:48;;;;;;;50.28;15.45;;;;;;;7.00;94.69;101817.59;6086226;19;20023;-77
2023/02/23 08:51:55;;;;;;;53.42;17.15;;;;;;;7.03;94.32;101821.91;6088453;19;20011;-75
2023/02/23 08:54:00;;;;;;;51.40;18.40;;;;;;;7.14;94.94;101830.50;6077888;19;19998;-76
2023/02/23 08:56:08;;;;;;;49.53;18.73;;;;;;;7.17;94.60;101824.38;6088767;19;20570;-76
2023/02/23 08:58:13;;;;;;;53.38;18.15;;;;;;;7.20;94.19;101833.03;6082632;19;20085;-76
2023/02/23 09:00:21;;;;;;;49.05;16.23;;;;;;;7.29;94.30;101828.59;6082818;19;20078;-75
2023/02/23 09:02:29;;;;;;;40.40;14.27;;;;;;;7.26;93.60;101829.50;6087814;19;20583;-75
2023/02/23 09:04:34;;;;;;;40.55;14.10;;;;;;;7.39;94.16;101820.63;6086208;19;20117;-75
2023/02/23 09:06:42;;;;;;;33.35;13.55;;;;;;;7.56;93.30;101832.66;6085924;19;20037;-75
2023/02/23 09:08:48;;;;;;;32.80;13.23;;;;;;;7.45;91.92;101835.38;6084577;19;20006;-74
2023/02/23 09:10:55;;;;;;;34.33;13.02;;;;;;;7.36;91.80;101825.03;6080247;19;20081;-74
2023/02/23 09:13:00;;;;;;;35.42;13.10;;;;;;;7.41;92.60;101833.69;6077529;19;20765;-76
2023/02/23 09:15:07;;;;;;;29.88;11.85;;;;;;;7.42;92.42;101830.19;6088256;19;20046;-75
2023/02/23 09:17:14;;;;;;;34.00;12.65;;;;;;;7.39;90.64;101838.06;6090656;19;20222;-75
2023/02/23 09:19:26;;;;;;;30.25;12.15;;;;;;;7.48;91.00;101846.69;6086835;19;20022;-74
2023/02/23 09:21:33;;;;;;;22.02;10.15;;;;;;;7.57;91.39;101850.94;6088471;19;20081;-75
2023/02/23 09:23:38;;;;;;;30.02;11.05;;;;;;;7.48;90.33;101851.91;6084350;19;20038;-76
2023/02/23 09:25:45;;;;;;;28.65;10.40;;;;;;;7.52;90.98;101857.97;6088661;19;20336;-77
2023/02/23 09:27:50;;;;;;;26.45;11.07;;;;;;;7.56;91.70;101861.44;6090393;19;20006;-76
2023/02/23 09:29:58;;;;;;;26.35;10.38;;;;;;;7.59;91.40;101854.41;6085529;19;20358;-76
2023/02/23 09:32:03;;;;;;;29.98;11.20;;;;;;;7.52;90.93;101859.72;6086092;19;20527;-80
2023/02/23 09:34:14;;;;;;;24.35;10.90;;;;;;;7.55;91.50;101857.06;6094429;19;20010;-83
2023/02/23 09:36:26;;;;;;;31.20;11.23;;;;;;;7.50;90.16;101849.25;6057794;19;20416;-84
2023/02/23 09:38:35;;;;;;;25.95;9.98;;;;;;;7.42;90.34;101853.72;6099526;19;20010;-85
2023/02/23 09:40:55;;;;;;;23.70;9.93;;;;;;;7.47;90.43;101860.63;6107139;19;20054;-85
2023/02/23 09:43:28;;;;;;;31.27;11.52;;;;;;;7.42;90.24;101851.09;6076045;19;20026;-83
2023/02/23 09:45:42;;;;;;;28.95;9.90;;;;;;;7.46;90.84;101852.81;6079898;19;20017;-86
2023/02/23 09:48:05;;;;;;;29.00;11.57;;;;;;;7.57;91.53;101860.53;6101461;19;20684;-85
2023/02/23 09:50:20;;;;;;;27.05;10.05;;;;;;;7.61;90.40;101854.38;6101357;19;20007;-85
2023/02/23 09:52:46;;;;;;;29.50;11.07;;;;;;;7.62;90.59;101853.50;6077475;19;20010;-85
2023/02/23 09:55:16;;;;;;;30.60;10.95;;;;;;;7.65;90.61;101854.31;6101052;19;20010;-85
2023/02/23 09:57:29;;;;;;;28.95;10.88;;;;;;;7.63;90.68;101863.94;6093224;19;20042;-85
2023/02/23 09:59:37;;;;;;;29.30;11.95;;;;;;;7.71;90.34;101853.38;6102618;19;20018;-85
2023/02/23 10:02:00;;;;;;;33.60;11.75;;;;;;;7.77;90.32;101862.94;6098240;19;20089;-85
2023/02/23 10:04:12;;;;;;;29.85;11.13;;;;;;;7.84;89.40;101868.03;6099656;19;20006;-85
2023/02/23 10:06:20;;;;;;;28.40;11.00;;;;;;;7.82;89.72;101861.09;6096359;19;20011;-84
2023/02/23 10:08:42;;;;;;;30.33;11.38;;;;;;;7.78;88.78;101868.13;6074486;19;20017;-84
2023/02/23 10:10:52;;;;;;;28.83;11.45;;;;;;;7.82;89.41;101859.38;6094696;19;20022;-85
2023/02/23 10:13:05;;;;;;;30.48;11.27;;;;;;;7.87;89.60;101862.78;6093640;19;24217;-79
2023/02/23 10:15:26;;;;;;;27.00;10.35;;;;;;;7.79;88.65;101864.59;6097161;19;20677;-86
2023/02/23 10:17:40;;;;;;;30.33;10.90;;;;;;;7.72;89.33;101870.81;6099651;19;20031;-84
2023/02/23 10:19:53;;;;;;;32.10;9.98;;;;;;;7.86;90.07;101868.88;6070721;19;20082;-85
2023/02/23 10:22:02;;;;;;;24.05;9.75;;;;;;;7.86;88.94;101868.03;6096255;19;20082;-84
2023/02/23 10:24:15;;;;;;;28.75;11.35;;;;;;;7.86;89.15;101873.25;6098195;19;20050;-84
2023/02/23 10:26:30;;;;;;;23.08;10.75;;;;;;;7.95;88.81;101869.66;6078436;19;20007;-86
2023/02/23 10:28:38;;;;;;;28.42;9.88;;;;;;;7.95;88.12;101872.28;6097958;19;20013;-84
2023/02/23 10:30:51;;;;;;;27.70;9.90;;;;;;;8.06;88.30;101873.00;6094738;19;20356;-84
2023/02/23 10:33:03;;;;;;;24.75;10.23;;;;;;;8.07;89.03;101880.81;6102996;19;19998;-84
2023/02/23 10:35:14;;;;;;;26.52;10.00;;;;;;;8.10;88.61;101878.16;6075912;19;20006;-84
2023/02/23 10:37:22;;;;;;;26.92;9.98;;;;;;;8.01;88.67;101888.78;6104276;19;20007;-85
2023/02/23 10:39:31;;;;;;;25.60;9.98;;;;;;;8.07;88.95;101879.97;6102277;19;20014;-85
2023/02/23 10:41:37;;;;;;;23.95;10.13;;;;;;;8.17;88.98;101883.34;6102370;19;20125;-85
2023/02/23 10:43:42;;;;;;;24.75;9.52;;;;;;;7.99;88.26;101884.44;6101156;19;20011;-85
2023/02/23 10:45:49;;;;;;;29.83;10.60;;;;;;;7.91;88.52;101885.41;6097816;19;20021;-83
2023/02/23 10:48:01;;;;;;;25.63;10.75;;;;;;;7.91;88.25;101876.69;6108091;19;20007;-84
2023/02/23 10:50:07;;;;;;;26.52;11.05;;;;;;;7.88;88.94;101888.06;6102137;19;20014;-84
2023/02/23 10:52:20;;;;;;;25.95;10.50;;;;;;;7.82;88.34;101890.75;6096000;19;20044;-83
2023/02/23 10:54:46;;;;;;;24.02;10.13;;;;;;;7.74;88.70;101889.09;6090962;19;20037;-82
2023/02/23 10:56:53;;;;;;;26.92;11.18;;;;;;;7.75;89.42;101881.25;6097872;19;20011;-84
2023/02/23 10:59:00;;;;;;;21.40;9.43;;;;;;;7.73;89.93;101885.63;6050386;19;20025;-81
2023/02/23 11:01:11;;;;;;;29.33;11.07;;;;;;;7.66;90.16;101892.69;6072970;19;20464;-84
2023/02/23 11:03:25;;;;;;;28.98;10.20;;;;;;;7.66;90.57;101892.69;6076092;19;20023;-84
2023/02/23 11:05:45;;;;;;;30.30;10.52;;;;;;;7.63;90.57;101889.22;6099336;19;20137;-84
2023/02/23 11:07:54;;;;;;;32.25;11.30;;;;;;;7.66;90.63;101891.81;6096538;19;20019;-83
2023/02/23 11:10:29;;;;;;;25.33;10.35;;;;;;;7.79;91.05;101893.38;6094364;19;20628;-82
2023/02/23 11:12:42;;;;;;;25.48;10.73;;;;;;;7.76;90.34;101888.19;6083472;19;20007;-75
2023/02/23 11:14:47;;;;;;;29.77;10.80;;;;;;;7.73;90.31;101898.72;6087085;19;20014;-74